sensor_id;sensor_type;location;lat;lon;timestamp;pressure;altitude;pressure_sealevel;temperature;humidity
70544;BME280;58097;48.364;-1.224;2023-05-16T00:02:18;100364.03;;;8.86;71.92
70544;BME280;58097;48.364;-1.224;2023-05-16T00:04:44;100358.81;;;8.83;71.75
70544;BME280;58097;48.364;-1.224;2023-05-16T00:07:10;100363.75;;;8.79;71.82
70544;BME280;58097;48.364;-1.224;2023-05-16T00:09:35;100369.25;;;8.79;71.77
70544;BME280;58097;48.364;-1.224;2023-05-16T00:12:01;100369.25;;;8.79;71.85
70544;BME280;58097;48.364;-1.224;2023-05-16T00:14:26;100367.50;;;8.78;71.85
70544;BME280;58097;48.364;-1.224;2023-05-16T00:16:53;100374.03;;;8.77;71.98
70544;BME280;58097;48.364;-1.224;2023-05-16T00:19:19;100373.28;;;8.75;72.04
70544;BME280;58097;48.364;-1.224;2023-05-16T00:21:44;100370.97;;;8.71;72.21
70544;BME280;58097;48.364;-1.224;2023-05-16T00:24:10;100365.59;;;8.69;72.06
70544;BME280;58097;48.364;-1.224;2023-05-16T00:26:35;100369.34;;;8.68;72.14
70544;BME280;58097;48.364;-1.224;2023-05-16T00:29:01;100371.34;;;8.66;72.09
70544;BME280;58097;48.364;-1.224;2023-05-16T00:31:26;100359.72;;;8.62;72.36
70544;BME280;58097;48.364;-1.224;2023-05-16T00:33:52;100356.38;;;8.59;72.19
70544;BME280;58097;48.364;-1.224;2023-05-16T00:36:18;100352.03;;;8.56;72.24
70544;BME280;58097;48.364;-1.224;2023-05-16T00:38:44;100356.66;;;8.56;72.42
70544;BME280;58097;48.364;-1.224;2023-05-16T00:41:09;100358.81;;;8.52;72.46
70544;BME280;58097;48.364;-1.224;2023-05-16T00:43:35;100356.50;;;8.48;72.31
70544;BME280;58097;48.364;-1.224;2023-05-16T00:46:00;100353.88;;;8.46;72.43
70544;BME280;58097;48.364;-1.224;2023-05-16T00:48:26;100352.00;;;8.47;72.48
70544;BME280;58097;48.364;-1.224;2023-05-16T00:50:52;100354.88;;;8.45;72.40
70544;BME280;58097;48.364;-1.224;2023-05-16T00:53:18;100362.28;;;8.45;72.59
70544;BME280;58097;48.364;-1.224;2023-05-16T00:55:44;100355.03;;;8.44;72.56
70544;BME280;58097;48.364;-1.224;2023-05-16T00:58:10;100366.19;;;8.42;72.58
70544;BME280;58097;48.364;-1.224;2023-05-16T01:00:35;100354.56;;;8.38;72.71
70544;BME280;58097;48.364;-1.224;2023-05-16T01:03:03;100360.94;;;8.39;72.70
70544;BME280;58097;48.364;-1.224;2023-05-16T01:05:29;100352.06;;;8.35;72.78
70544;BME280;58097;48.364;-1.224;2023-05-16T01:07:55;100354.94;;;8.34;72.72
70544;BME280;58097;48.364;-1.224;2023-05-16T01:10:21;100360.56;;;8.32;72.79
70544;BME280;58097;48.364;-1.224;2023-05-16T01:13:17;100353.44;;;8.30;72.71
70544;BME280;58097;48.364;-1.224;2023-05-16T01:15:51;100363.00;;;8.26;72.78
70544;BME280;58097;48.364;-1.224;2023-05-16T01:18:46;100361.53;;;8.22;72.64
70544;BME280;58097;48.364;-1.224;2023-05-16T01:21:20;100360.94;;;8.18;72.89
70544;BME280;58097;48.364;-1.224;2023-05-16T01:26:26;100352.47;;;8.10;72.82
70544;BME280;58097;48.364;-1.224;2023-05-16T01:28:52;100354.47;;;8.08;72.88
70544;BME280;58097;48.364;-1.224;2023-05-16T01:31:19;100359.22;;;8.06;73.11
70544;BME280;58097;48.364;-1.224;2023-05-16T01:33:45;100356.88;;;8.01;72.91
70544;BME280;58097;48.364;-1.224;2023-05-16T01:42:06;100363.06;;;7.94;73.17
70544;BME280;58097;48.364;-1.224;2023-05-16T01:44:36;100358.69;;;7.91;73.18
70544;BME280;58097;48.364;-1.224;2023-05-16T01:47:10;100360.84;;;7.88;73.17
70544;BME280;58097;48.364;-1.224;2023-05-16T01:49:45;100361.13;;;7.85;73.22
70544;BME280;58097;48.364;-1.224;2023-05-16T01:52:14;100361.25;;;7.83;73.19
70544;BME280;58097;48.364;-1.224;2023-05-16T01:54:43;100364.16;;;7.82;73.27
70544;BME280;58097;48.364;-1.224;2023-05-16T01:57:11;100364.25;;;7.80;73.63
70544;BME280;58097;48.364;-1.224;2023-05-16T01:59:37;100364.50;;;7.77;73.55
70544;BME280;58097;48.364;-1.224;2023-05-16T02:02:03;100360.88;;;7.76;74.00
70544;BME280;58097;48.364;-1.224;2023-05-16T02:04:28;100359.88;;;7.77;73.96
70544;BME280;58097;48.364;-1.224;2023-05-16T02:06:54;100363.63;;;7.76;73.88
70544;BME280;58097;48.364;-1.224;2023-05-16T02:09:20;100360.88;;;7.76;74.02
70544;BME280;58097;48.364;-1.224;2023-05-16T02:11:46;100358.13;;;7.76;74.27
70544;BME280;58097;48.364;-1.224;2023-05-16T02:14:11;100359.28;;;7.74;74.43
70544;BME280;58097;48.364;-1.224;2023-05-16T02:16:38;100361.28;;;7.72;74.24
70544;BME280;58097;48.364;-1.224;2023-05-16T02:19:03;100359.41;;;7.72;74.48
70544;BME280;58097;48.364;-1.224;2023-05-16T02:21:28;100355.78;;;7.72;74.65
70544;BME280;58097;48.364;-1.224;2023-05-16T02:23:55;100355.91;;;7.70;74.50
70544;BME280;58097;48.364;-1.224;2023-05-16T02:26:20;100359.94;;;7.66;74.35
70544;BME280;58097;48.364;-1.224;2023-05-16T02:28:46;100363.97;;;7.62;74.42
70544;BME280;58097;48.364;-1.224;2023-05-16T02:31:24;100368.72;;;7.60;74.12
70544;BME280;58097;48.364;-1.224;2023-05-16T02:33:50;100363.38;;;7.59;74.18
70544;BME280;58097;48.364;-1.224;2023-05-16T02:36:15;100363.38;;;7.59;74.20
70544;BME280;58097;48.364;-1.224;2023-05-16T02:38:40;100373.91;;;7.54;74.10
70544;BME280;58097;48.364;-1.224;2023-05-16T02:41:06;100373.03;;;7.53;74.27
70544;BME280;58097;48.364;-1.224;2023-05-16T02:43:31;100371.13;;;7.54;74.35
70544;BME280;58097;48.364;-1.224;2023-05-16T02:45:56;100372.75;;;7.56;74.37
70544;BME280;58097;48.364;-1.224;2023-05-16T02:48:22;100368.00;;;7.58;74.10
70544;BME280;58097;48.364;-1.224;2023-05-16T02:50:47;100366.13;;;7.59;74.28
70544;BME280;58097;48.364;-1.224;2023-05-16T02:53:12;100365.25;;;7.58;74.15
70544;BME280;58097;48.364;-1.224;2023-05-16T02:55:38;100368.88;;;7.59;74.20
70544;BME280;58097;48.364;-1.224;2023-05-16T02:58:03;100367.00;;;7.59;74.22
70544;BME280;58097;48.364;-1.224;2023-05-16T03:00:29;100368.72;;;7.60;74.15
70544;BME280;58097;48.364;-1.224;2023-05-16T03:02:54;100368.72;;;7.60;74.30
70544;BME280;58097;48.364;-1.224;2023-05-16T03:05:19;100371.63;;;7.59;74.37
70544;BME280;58097;48.364;-1.224;2023-05-16T03:07:45;100365.09;;;7.60;74.36
70544;BME280;58097;48.364;-1.224;2023-05-16T03:10:10;100368.00;;;7.58;74.28
70544;BME280;58097;48.364;-1.224;2023-05-16T03:12:36;100369.00;;;7.57;74.20
70544;BME280;58097;48.364;-1.224;2023-05-16T03:15:01;100369.00;;;7.57;74.11
70544;BME280;58097;48.364;-1.224;2023-05-16T03:17:28;100367.25;;;7.56;74.18
70544;BME280;58097;48.364;-1.224;2023-05-16T03:19:53;100364.63;;;7.55;74.14
70544;BME280;58097;48.364;-1.224;2023-05-16T03:22:19;100370.28;;;7.53;74.29
70544;BME280;58097;48.364;-1.224;2023-05-16T03:24:44;100366.75;;;7.51;74.37
70544;BME280;58097;48.364;-1.224;2023-05-16T03:27:10;100366.75;;;7.51;74.23
70544;BME280;58097;48.364;-1.224;2023-05-16T03:29:36;100369.03;;;7.46;74.22
70544;BME280;58097;48.364;-1.224;2023-05-16T03:32:01;100373.66;;;7.45;74.18
70544;BME280;58097;48.364;-1.224;2023-05-16T03:34:26;100375.66;;;7.43;74.19
70544;BME280;58097;48.364;-1.224;2023-05-16T03:36:52;100374.31;;;7.38;74.18
70544;BME280;58097;48.364;-1.224;2023-05-16T03:39:17;100373.69;;;7.34;74.20
70544;BME280;58097;48.364;-1.224;2023-05-16T03:41:43;100374.81;;;7.32;74.30
70544;BME280;58097;48.364;-1.224;2023-05-16T03:44:08;100380.47;;;7.30;74.31
70544;BME280;58097;48.364;-1.224;2023-05-16T03:46:34;100375.09;;;7.29;74.33
70544;BME280;58097;48.364;-1.224;2023-05-16T03:49:00;100376.97;;;7.28;74.25
70544;BME280;58097;48.364;-1.224;2023-05-16T03:51:25;100373.47;;;7.26;74.29
70544;BME280;58097;48.364;-1.224;2023-05-16T03:53:51;100379.97;;;7.25;74.45
70544;BME280;58097;48.364;-1.224;2023-05-16T03:56:16;100384.59;;;7.25;74.42
70544;BME280;58097;48.364;-1.224;2023-05-16T03:58:41;100381.22;;;7.21;74.46
70544;BME280;58097;48.364;-1.224;2023-05-16T04:01:07;100382.34;;;7.19;74.43
70544;BME280;58097;48.364;-1.224;2023-05-16T04:03:32;100377.84;;;7.18;74.64
70544;BME280;58097;48.364;-1.224;2023-05-16T04:05:58;100385.22;;;7.17;74.38
70544;BME280;58097;48.364;-1.224;2023-05-16T04:08:23;100380.72;;;7.16;74.40
70544;BME280;58097;48.364;-1.224;2023-05-16T04:10:50;100386.34;;;7.14;74.41
70544;BME280;58097;48.364;-1.224;2023-05-16T04:13:15;100377.50;;;7.11;74.34
70544;BME280;58097;48.364;-1.224;2023-05-16T04:15:41;100377.63;;;7.09;74.45
70544;BME280;58097;48.364;-1.224;2023-05-16T04:18:07;100381.38;;;7.08;74.54
70544;BME280;58097;48.364;-1.224;2023-05-16T04:20:33;100386.13;;;7.06;74.48
70544;BME280;58097;48.364;-1.224;2023-05-16T04:22:59;100385.38;;;7.04;74.51
70544;BME280;58097;48.364;-1.224;2023-05-16T04:25:24;100390.25;;;7.01;74.55
70544;BME280;58097;48.364;-1.224;2023-05-16T04:27:50;100392.13;;;7.00;74.69
70544;BME280;58097;48.364;-1.224;2023-05-16T04:30:16;100384.16;;;6.97;74.56
70544;BME280;58097;48.364;-1.224;2023-05-16T04:32:42;100383.28;;;6.97;74.69
70544;BME280;58097;48.364;-1.224;2023-05-16T04:35:07;100385.16;;;6.96;74.83
70544;BME280;58097;48.364;-1.224;2023-05-16T04:37:33;100387.91;;;6.96;74.59
70544;BME280;58097;48.364;-1.224;2023-05-16T04:40:00;100386.16;;;6.95;74.78
70544;BME280;58097;48.364;-1.224;2023-05-16T04:42:25;100385.16;;;6.96;74.93
70544;BME280;58097;48.364;-1.224;2023-05-16T04:44:51;100382.41;;;6.96;75.06
70544;BME280;58097;48.364;-1.224;2023-05-16T04:47:16;100385.91;;;6.98;75.05
70544;BME280;58097;48.364;-1.224;2023-05-16T04:49:42;100390.53;;;6.98;75.13
70544;BME280;58097;48.364;-1.224;2023-05-16T04:52:07;100385.03;;;6.98;75.26
70544;BME280;58097;48.364;-1.224;2023-05-16T04:54:34;100380.28;;;7.00;75.39
70544;BME280;58097;48.364;-1.224;2023-05-16T04:56:59;100391.13;;;7.01;75.46
70544;BME280;58097;48.364;-1.224;2023-05-16T04:59:25;100382.75;;;7.03;75.42
70544;BME280;58097;48.364;-1.224;2023-05-16T05:01:50;100376.25;;;7.04;75.56
70544;BME280;58097;48.364;-1.224;2023-05-16T05:04:16;100384.50;;;7.04;75.75
70544;BME280;58097;48.364;-1.224;2023-05-16T05:06:42;100385.25;;;7.06;75.85
70544;BME280;58097;48.364;-1.224;2023-05-16T05:09:07;100384.13;;;7.08;75.88
70544;BME280;58097;48.364;-1.224;2023-05-16T05:11:33;100390.09;;;7.13;76.02
70544;BME280;58097;48.364;-1.224;2023-05-16T05:13:58;100389.84;;;7.17;75.91
70544;BME280;58097;48.364;-1.224;2023-05-16T05:16:23;100384.97;;;7.20;76.07
70544;BME280;58097;48.364;-1.224;2023-05-16T05:18:49;100389.09;;;7.26;76.24
70544;BME280;58097;48.364;-1.224;2023-05-16T05:21:14;100385.09;;;7.30;76.41
70544;BME280;58097;48.364;-1.224;2023-05-16T05:23:40;100390.19;;;7.34;76.53
70544;BME280;58097;48.364;-1.224;2023-05-16T05:26:05;100399.06;;;7.38;76.72
70544;BME280;58097;48.364;-1.224;2023-05-16T05:28:30;100396.78;;;7.43;76.81
70544;BME280;58097;48.364;-1.224;2023-05-16T05:30:58;100393.78;;;7.46;76.88
70544;BME280;58097;48.364;-1.224;2023-05-16T05:33:27;100397.00;;;7.51;77.18
70544;BME280;58097;48.364;-1.224;2023-05-16T05:35:53;100396.50;;;7.57;77.25
70544;BME280;58097;48.364;-1.224;2023-05-16T05:38:19;100397.97;;;7.61;77.41
70544;BME280;58097;48.364;-1.224;2023-05-16T05:40:45;100396.72;;;7.65;77.42
70544;BME280;58097;48.364;-1.224;2023-05-16T05:43:10;100401.69;;;7.71;77.80
70544;BME280;58097;48.364;-1.224;2023-05-16T05:45:36;100406.53;;;7.79;78.13
70544;BME280;58097;48.364;-1.224;2023-05-16T05:48:02;100416.63;;;7.90;78.30
70544;BME280;58097;48.364;-1.224;2023-05-16T05:50:27;100409.31;;;8.00;78.32
70544;BME280;58097;48.364;-1.224;2023-05-16T05:52:54;100411.25;;;8.09;78.40
70544;BME280;58097;48.364;-1.224;2023-05-16T05:55:19;100407.72;;;8.18;78.51
70544;BME280;58097;48.364;-1.224;2023-05-16T05:57:44;100420.69;;;8.27;78.52
70544;BME280;58097;48.364;-1.224;2023-05-16T06:00:10;100424.53;;;8.36;78.60
70544;BME280;58097;48.364;-1.224;2023-05-16T06:02:36;100428.38;;;8.45;78.66
70544;BME280;58097;48.364;-1.224;2023-05-16T06:05:01;100434.06;;;8.53;78.86
70544;BME280;58097;48.364;-1.224;2023-05-16T06:07:27;100430.34;;;8.63;78.90
70544;BME280;58097;48.364;-1.224;2023-05-16T06:09:52;100435.06;;;8.73;78.79
70544;BME280;58097;48.364;-1.224;2023-05-16T06:12:17;100429.59;;;8.82;78.86
70544;BME280;58097;48.364;-1.224;2023-05-16T06:14:43;100437.75;;;8.93;78.80
70544;BME280;58097;48.364;-1.224;2023-05-16T06:17:08;100431.16;;;9.06;78.95
70544;BME280;58097;48.364;-1.224;2023-05-16T06:19:33;100438.31;;;9.18;78.82
70544;BME280;58097;48.364;-1.224;2023-05-16T06:21:59;100436.06;;;9.32;78.93
70544;BME280;58097;48.364;-1.224;2023-05-16T06:24:24;100440.88;;;9.50;79.05
70544;BME280;58097;48.364;-1.224;2023-05-16T06:26:49;100444.56;;;9.70;79.18
70544;BME280;58097;48.364;-1.224;2023-05-16T06:29:15;100447.78;;;9.94;79.67
70544;BME280;58097;48.364;-1.224;2023-05-16T06:31:41;100446.81;;;10.24;80.40
70544;BME280;58097;48.364;-1.224;2023-05-16T06:34:06;100456.22;;;10.50;80.55
70544;BME280;58097;48.364;-1.224;2023-05-16T06:36:32;100454.59;;;10.77;80.51
70544;BME280;58097;48.364;-1.224;2023-05-16T06:38:57;100449.28;;;11.03;80.58
70544;BME280;58097;48.364;-1.224;2023-05-16T06:41:22;100453.25;;;11.28;80.43
70544;BME280;58097;48.364;-1.224;2023-05-16T06:43:48;100453.69;;;11.51;80.44
70544;BME280;58097;48.364;-1.224;2023-05-16T06:46:13;100449.63;;;11.72;80.09
70544;BME280;58097;48.364;-1.224;2023-05-16T06:48:39;100450.09;;;11.95;79.98
70544;BME280;58097;48.364;-1.224;2023-05-16T06:51:04;100454.47;;;12.16;78.55
70544;BME280;58097;48.364;-1.224;2023-05-16T06:53:29;100458.03;;;12.26;77.92
70544;BME280;58097;48.364;-1.224;2023-05-16T06:55:55;100452.53;;;12.34;77.83
70544;BME280;58097;48.364;-1.224;2023-05-16T06:58:20;100465.75;;;12.40;77.66
70544;BME280;58097;48.364;-1.224;2023-05-16T07:00:48;100465.84;;;12.48;77.29
70544;BME280;58097;48.364;-1.224;2023-05-16T07:03:14;100467.88;;;12.64;78.31
70544;BME280;58097;48.364;-1.224;2023-05-16T07:05:39;100470.09;;;12.78;77.12
70544;BME280;58097;48.364;-1.224;2023-05-16T07:08:07;100482.97;;;12.87;77.59
70544;BME280;58097;48.364;-1.224;2023-05-16T07:10:33;100481.81;;;12.98;77.11
70544;BME280;58097;48.364;-1.224;2023-05-16T07:12:59;100485.53;;;13.07;76.91
70544;BME280;58097;48.364;-1.224;2023-05-16T07:15:25;100487.03;;;13.19;77.74
70544;BME280;58097;48.364;-1.224;2023-05-16T07:17:51;100489.75;;;13.37;77.01
70544;BME280;58097;48.364;-1.224;2023-05-16T07:20:16;100490.47;;;13.47;76.12
70544;BME280;58097;48.364;-1.224;2023-05-16T07:22:42;100490.91;;;13.60;76.42
70544;BME280;58097;48.364;-1.224;2023-05-16T07:25:07;100492.50;;;13.71;76.58
70544;BME280;58097;48.364;-1.224;2023-05-16T07:27:37;100489.03;;;13.77;73.63
70544;BME280;58097;48.364;-1.224;2023-05-16T07:30:06;100499.47;;;13.83;73.67
70544;BME280;58097;48.364;-1.224;2023-05-16T07:32:31;100505.97;;;13.91;73.23
70544;BME280;58097;48.364;-1.224;2023-05-16T07:34:57;100501.28;;;14.00;74.29
70544;BME280;58097;48.364;-1.224;2023-05-16T07:37:22;100494.53;;;14.11;73.56
70544;BME280;58097;48.364;-1.224;2023-05-16T07:39:48;100502.75;;;14.20;74.49
70544;BME280;58097;48.364;-1.224;2023-05-16T07:42:13;100504.31;;;14.31;74.44
70544;BME280;58097;48.364;-1.224;2023-05-16T07:44:38;100508.66;;;14.42;72.17
70544;BME280;58097;48.364;-1.224;2023-05-16T07:47:04;100509.53;;;14.26;68.78
70544;BME280;58097;48.364;-1.224;2023-05-16T07:49:30;100503.78;;;14.27;70.07
70544;BME280;58097;48.364;-1.224;2023-05-16T07:51:55;100504.31;;;14.39;72.18
70544;BME280;58097;48.364;-1.224;2023-05-16T07:54:21;100508.03;;;14.56;73.07
70544;BME280;58097;48.364;-1.224;2023-05-16T07:56:46;100510.81;;;14.72;73.35
70544;BME280;58097;48.364;-1.224;2023-05-16T07:59:11;100510.97;;;14.71;70.47
70544;BME280;58097;48.364;-1.224;2023-05-16T08:01:37;100513.94;;;14.85;70.64
70544;BME280;58097;48.364;-1.224;2023-05-16T08:04:02;100512.00;;;15.02;71.08
70544;BME280;58097;48.364;-1.224;2023-05-16T08:06:28;100512.72;;;15.12;69.95
70544;BME280;58097;48.364;-1.224;2023-05-16T08:08:54;100508.00;;;15.21;70.78
70544;BME280;58097;48.364;-1.224;2023-05-16T08:11:19;100511.44;;;15.39;70.75
70544;BME280;58097;48.364;-1.224;2023-05-16T08:13:47;100503.56;;;15.51;70.22
70544;BME280;58097;48.364;-1.224;2023-05-16T08:16:12;100504.44;;;15.60;67.00
70544;BME280;58097;48.364;-1.224;2023-05-16T08:18:38;100503.56;;;15.67;68.19
70544;BME280;58097;48.364;-1.224;2023-05-16T08:21:03;100503.88;;;15.72;65.41
70544;BME280;58097;48.364;-1.224;2023-05-16T08:23:29;100506.75;;;15.87;65.27
70544;BME280;58097;48.364;-1.224;2023-05-16T08:25:54;100506.44;;;15.90;67.13
70544;BME280;58097;48.364;-1.224;2023-05-16T08:28:20;100507.19;;;16.07;68.41
70544;BME280;58097;48.364;-1.224;2023-05-16T08:30:45;100504.34;;;16.23;69.01
70544;BME280;58097;48.364;-1.224;2023-05-16T08:33:11;100505.03;;;16.25;66.19
70544;BME280;58097;48.364;-1.224;2023-05-16T08:35:42;100507.25;;;16.30;66.62
70544;BME280;58097;48.364;-1.224;2023-05-16T08:38:08;100508.25;;;16.37;65.16
70544;BME280;58097;48.364;-1.224;2023-05-16T08:40:33;100504.34;;;16.15;62.11
70544;BME280;58097;48.364;-1.224;2023-05-16T08:42:59;100504.78;;;16.04;62.48
70544;BME280;58097;48.364;-1.224;2023-05-16T08:45:25;100507.94;;;16.01;63.09
70544;BME280;58097;48.364;-1.224;2023-05-16T08:47:53;100513.59;;;16.16;66.81
70544;BME280;58097;48.364;-1.224;2023-05-16T08:50:19;100512.66;;;16.31;64.73
70544;BME280;58097;48.364;-1.224;2023-05-16T08:52:46;100508.38;;;16.43;66.03
70544;BME280;58097;48.364;-1.224;2023-05-16T08:55:13;100506.66;;;16.65;67.90
70544;BME280;58097;48.364;-1.224;2023-05-16T08:57:40;100508.34;;;16.75;64.04
70544;BME280;58097;48.364;-1.224;2023-05-16T09:00:07;100502.34;;;16.86;64.40
70544;BME280;58097;48.364;-1.224;2023-05-16T09:02:42;100508.78;;;16.86;63.67
70544;BME280;58097;48.364;-1.224;2023-05-16T09:05:13;100501.56;;;16.92;62.90
70544;BME280;58097;48.364;-1.224;2023-05-16T09:07:40;100507.63;;;16.81;59.63
70544;BME280;58097;48.364;-1.224;2023-05-16T09:10:06;100516.47;;;16.84;62.14
70544;BME280;58097;48.364;-1.224;2023-05-16T09:12:35;100516.91;;;16.73;60.32
70544;BME280;58097;48.364;-1.224;2023-05-16T09:15:02;100515.59;;;16.61;60.09
70544;BME280;58097;48.364;-1.224;2023-05-16T09:17:34;100501.56;;;16.77;64.94
70544;BME280;58097;48.364;-1.224;2023-05-16T09:20:10;100507.75;;;17.02;64.12
70544;BME280;58097;48.364;-1.224;2023-05-16T09:22:37;100513.97;;;17.12;64.40
70544;BME280;58097;48.364;-1.224;2023-05-16T09:25:03;100513.31;;;17.25;65.87
70544;BME280;58097;48.364;-1.224;2023-05-16T09:27:30;100510.06;;;17.36;63.24
70544;BME280;58097;48.364;-1.224;2023-05-16T09:29:57;100514.66;;;17.29;63.71
70544;BME280;58097;48.364;-1.224;2023-05-16T09:32:22;100516.19;;;17.17;62.67
70544;BME280;58097;48.364;-1.224;2023-05-16T09:34:49;100510.75;;;17.00;61.62
70544;BME280;58097;48.364;-1.224;2023-05-16T09:37:16;100510.63;;;16.94;62.74
70544;BME280;58097;48.364;-1.224;2023-05-16T09:39:52;100512.19;;;16.96;64.09
70544;BME280;58097;48.364;-1.224;2023-05-16T09:42:19;100503.72;;;17.04;64.54
70544;BME280;58097;48.364;-1.224;2023-05-16T09:44:46;100510.59;;;17.17;63.12
70544;BME280;58097;48.364;-1.224;2023-05-16T09:47:17;100509.81;;;17.08;60.17
70544;BME280;58097;48.364;-1.224;2023-05-16T09:49:44;100508.41;;;16.89;60.67
70544;BME280;58097;48.364;-1.224;2023-05-16T09:52:09;100504.78;;;17.03;61.63
70544;BME280;58097;48.364;-1.224;2023-05-16T09:54:35;100511.75;;;17.08;61.56
70544;BME280;58097;48.364;-1.224;2023-05-16T09:57:00;100512.06;;;17.27;63.08
70544;BME280;58097;48.364;-1.224;2023-05-16T09:59:29;100501.59;;;17.44;64.21
70544;BME280;58097;48.364;-1.224;2023-05-16T10:01:58;100506.31;;;17.44;63.27
70544;BME280;58097;48.364;-1.224;2023-05-16T10:04:24;100501.25;;;17.24;61.36
70544;BME280;58097;48.364;-1.224;2023-05-16T10:06:50;100505.50;;;17.20;63.54
70544;BME280;58097;48.364;-1.224;2023-05-16T10:09:19;100497.78;;;17.08;60.63
70544;BME280;58097;48.364;-1.224;2023-05-16T10:11:47;100509.06;;;17.14;62.60
70544;BME280;58097;48.364;-1.224;2023-05-16T10:14:16;100507.03;;;17.23;58.37
70544;BME280;58097;48.364;-1.224;2023-05-16T10:16:42;100513.22;;;17.33;62.49
70544;BME280;58097;48.364;-1.224;2023-05-16T10:19:10;100509.09;;;17.44;60.96
70544;BME280;58097;48.364;-1.224;2023-05-16T10:21:36;100518.44;;;17.36;61.88
70544;BME280;58097;48.364;-1.224;2023-05-16T10:24:05;100508.59;;;17.25;62.20
70544;BME280;58097;48.364;-1.224;2023-05-16T10:26:31;100503.56;;;17.06;60.73
70544;BME280;58097;48.364;-1.224;2023-05-16T10:28:59;100502.06;;;16.95;60.97
70544;BME280;58097;48.364;-1.224;2023-05-16T10:31:27;100500.88;;;17.13;62.12
70544;BME280;58097;48.364;-1.224;2023-05-16T10:33:53;100498.09;;;17.27;61.71
70544;BME280;58097;48.364;-1.224;2023-05-16T10:36:20;100497.72;;;17.45;63.00
70544;BME280;58097;48.364;-1.224;2023-05-16T10:38:46;100496.31;;;17.64;61.27
70544;BME280;58097;48.364;-1.224;2023-05-16T10:41:12;100496.03;;;17.74;61.95
70544;BME280;58097;48.364;-1.224;2023-05-16T10:43:37;100493.13;;;17.82;60.47
70544;BME280;58097;48.364;-1.224;2023-05-16T10:46:07;100505.25;;;17.89;61.78
70544;BME280;58097;48.364;-1.224;2023-05-16T10:48:35;100504.97;;;17.84;57.53
70544;BME280;58097;48.364;-1.224;2023-05-16T10:51:02;100500.25;;;17.40;56.61
70544;BME280;58097;48.364;-1.224;2023-05-16T10:53:33;100505.78;;;17.25;57.86
70544;BME280;58097;48.364;-1.224;2023-05-16T10:58:39;100497.38;;;16.73;57.21
70544;BME280;58097;48.364;-1.224;2023-05-16T11:14:25;100472.06;;;17.27;59.29
70544;BME280;58097;48.364;-1.224;2023-05-16T11:16:58;100471.25;;;17.41;54.53
70544;BME280;58097;48.364;-1.224;2023-05-16T11:19:48;100470.34;;;17.55;56.11
70544;BME280;58097;48.364;-1.224;2023-05-16T11:22:31;100466.91;;;17.83;56.10
70544;BME280;58097;48.364;-1.224;2023-05-16T11:27:24;100465.50;;;18.08;55.86
70544;BME280;58097;48.364;-1.224;2023-05-16T11:29:51;100469.09;;;18.02;57.43
70544;BME280;58097;48.364;-1.224;2023-05-16T11:32:21;100470.78;;;17.67;55.48
70544;BME280;58097;48.364;-1.224;2023-05-16T11:34:47;100472.78;;;17.44;55.77
70544;BME280;58097;48.364;-1.224;2023-05-16T11:37:13;100475.00;;;17.48;57.34
70544;BME280;58097;48.364;-1.224;2023-05-16T11:39:40;100470.84;;;17.59;56.75
70544;BME280;58097;48.364;-1.224;2023-05-16T11:42:05;100480.41;;;17.79;56.59
70544;BME280;58097;48.364;-1.224;2023-05-16T11:44:31;100482.69;;;17.90;54.74
70544;BME280;58097;48.364;-1.224;2023-05-16T11:46:56;100467.78;;;17.83;51.29
70544;BME280;58097;48.364;-1.224;2023-05-16T11:49:22;100472.09;;;18.01;53.55
70544;BME280;58097;48.364;-1.224;2023-05-16T11:51:47;100482.75;;;18.26;57.50
70544;BME280;58097;48.364;-1.224;2023-05-16T11:54:14;100487.56;;;18.54;58.36
70544;BME280;58097;48.364;-1.224;2023-05-16T11:56:40;100484.94;;;18.31;53.86
70544;BME280;58097;48.364;-1.224;2023-05-16T11:59:05;100492.63;;;18.08;53.79
70544;BME280;58097;48.364;-1.224;2023-05-16T12:01:35;100476.91;;;17.92;55.49
70544;BME280;58097;48.364;-1.224;2023-05-16T12:04:06;100475.38;;;17.89;56.75
70544;BME280;58097;48.364;-1.224;2023-05-16T12:06:32;100480.63;;;18.14;58.11
70544;BME280;58097;48.364;-1.224;2023-05-16T12:08:57;100475.22;;;18.27;56.19
70544;BME280;58097;48.364;-1.224;2023-05-16T12:11:23;100471.81;;;18.32;56.58
70544;BME280;58097;48.364;-1.224;2023-05-16T12:13:48;100473.44;;;18.05;55.33
70544;BME280;58097;48.364;-1.224;2023-05-16T12:16:14;100469.88;;;17.96;55.77
70544;BME280;58097;48.364;-1.224;2023-05-16T12:18:40;100466.09;;;18.04;56.68
70544;BME280;58097;48.364;-1.224;2023-05-16T12:21:06;100475.31;;;18.19;57.96
70544;BME280;58097;48.364;-1.224;2023-05-16T12:23:32;100466.56;;;18.22;51.38
70544;BME280;58097;48.364;-1.224;2023-05-16T12:25:58;100459.31;;;18.13;53.57
70544;BME280;58097;48.364;-1.224;2023-05-16T12:28:30;100457.56;;;18.26;53.81
70544;BME280;58097;48.364;-1.224;2023-05-16T12:30:58;100469.28;;;18.01;55.37
70544;BME280;58097;48.364;-1.224;2023-05-16T12:33:23;100470.56;;;17.83;55.01
70544;BME280;58097;48.364;-1.224;2023-05-16T12:35:48;100468.63;;;17.54;54.30
70544;BME280;58097;48.364;-1.224;2023-05-16T12:38:15;100465.72;;;17.33;55.17
70544;BME280;58097;48.364;-1.224;2023-05-16T12:40:42;100472.28;;;17.25;56.50
70544;BME280;58097;48.364;-1.224;2023-05-16T12:43:21;100465.38;;;17.36;57.81
70544;BME280;58097;48.364;-1.224;2023-05-16T12:45:56;100461.19;;;17.61;57.75
70544;BME280;58097;48.364;-1.224;2023-05-16T12:48:23;100459.25;;;17.91;58.89
70544;BME280;58097;48.364;-1.224;2023-05-16T12:50:53;100450.72;;;17.93;54.27
70544;BME280;58097;48.364;-1.224;2023-05-16T12:53:19;100454.84;;;17.82;55.51
70544;BME280;58097;48.364;-1.224;2023-05-16T12:55:45;100456.28;;;17.49;54.79
70544;BME280;58097;48.364;-1.224;2023-05-16T12:58:10;100469.75;;;17.30;55.86
70544;BME280;58097;48.364;-1.224;2023-05-16T13:00:36;100476.50;;;17.07;56.93
70544;BME280;58097;48.364;-1.224;2023-05-16T13:03:02;100475.09;;;16.88;57.45
70544;BME280;58097;48.364;-1.224;2023-05-16T13:05:28;100470.84;;;16.77;57.43
70544;BME280;58097;48.364;-1.224;2023-05-16T13:07:54;100459.41;;;16.64;57.29
70544;BME280;58097;48.364;-1.224;2023-05-16T13:10:19;100462.81;;;16.74;59.08